Time;durP1;ratioP1;P1;durP2;ratioP2;P2;SDS_P1;SDS_P2;PMS_P1;PMS_P2;Temp;Humidity;BMP_temperature;BMP_pressure;BME280_temperature;BME280_humidity;BME280_pressure;Samples;Min_cycle;Max_cycle;Signal;HPM_P1;HPM_P2
2024/02/08 00:02:50;;;;;;;;;;;;;;;-0.60;100.00;98259.66;438268;1260;139774;-60
2024/02/08 00:12:56;;;;;;;10.00;5.00;;;;;;;-0.79;100.00;98258.13;447443;1260;125883;-59
2024/02/08 00:23:02;;;;;;;6.10;3.70;;;;;;;-0.92;100.00;98263.48;442036;1261;140926;-56
2024/02/08 00:33:07;;;;;;;;;;;;;;;-1.01;100.00;98265.52;437437;1258;139575;-55
2024/02/08 00:43:13;;;;;;;9.10;3.10;;;;;;;-1.14;100.00;98268.59;449624;1258;126771;-56
2024/02/08 00:53:19;;;;;;;5.20;2.20;;;;;;;-1.27;100.00;98276.27;440776;1260;139306;-55
2024/02/08 01:03:25;;;;;;;3.30;2.80;;;;;;;-1.42;100.00;98280.77;436874;1257;139688;-53
2024/02/08 01:13:31;;;;;;;5.30;1.90;;;;;;;-1.57;100.00;98285.05;437028;1257;139614;-54
2024/02/08 01:23:38;;;;;;;5.10;1.90;;;;;;;-1.66;100.00;98281.27;438296;1260;140183;-54
2024/02/08 01:33:48;;;;;;;4.30;2.10;;;;;;;-1.74;100.00;98291.29;436994;1261;139314;-56
2024/02/08 01:43:58;;;;;;;6.90;4.00;;;;;;;-1.80;100.00;98293.77;437877;1260;140769;-55
2024/02/08 01:54:05;;;;;;;7.00;4.00;;;;;;;-1.90;100.00;98290.33;437883;1261;139914;-54
2024/02/08 02:04:13;;;;;;;7.20;6.20;;;;;;;-2.02;100.00;98291.57;438722;1261;139825;-56
2024/02/08 02:14:28;;;;;;;8.00;3.30;;;;;;;-2.17;100.00;98288.45;446058;1260;139492;-53
2024/02/08 02:24:36;;;;;;;4.00;3.00;;;;;;;-2.32;100.00;98298.72;446687;1259;139427;-59
2024/02/08 02:34:44;;;;;;;4.90;2.70;;;;;;;-2.46;100.00;98303.27;437164;1260;139533;-52
2024/02/08 02:44:51;;;;;;;6.40;3.50;;;;;;;-2.57;100.00;98308.77;440565;1260;139861;-54
2024/02/08 02:54:57;;;;;;;6.10;4.10;;;;;;;-2.68;100.00;98312.70;449660;1257;140152;-59
2024/02/08 03:05:07;;;;;;;7.40;2.90;;;;;;;-2.75;100.00;98314.95;438282;1260;139763;-59
2024/02/08 03:15:13;;;;;;;7.70;4.20;;;;;;;-2.82;100.00;98317.20;449638;1256;140127;-54
2024/02/08 03:25:21;;;;;;;6.90;4.20;;;;;;;-2.91;100.00;98316.95;440430;1256;140538;-64
2024/02/08 03:35:28;;;;;;;5.60;2.40;;;;;;;-3.07;100.00;98318.63;447563;1256;139167;-64
2024/02/08 03:45:39;;;;;;;4.30;2.70;;;;;;;-3.27;100.00;98321.73;436729;1257;140780;-53
2024/02/08 03:55:47;;;;;;;5.30;3.80;;;;;;;-3.43;100.00;98329.36;436830;1259;140383;-53
2024/02/08 04:06:00;;;;;;;6.90;3.70;;;;;;;-3.48;100.00;98337.91;436998;1260;139487;-53
2024/02/08 04:57:41;;;;;;;11.30;4.90;;;;;;;-3.62;100.00;98339.82;437828;1260;139734;-55
2024/02/08 05:07:45;;;;;;;;;;;;;;;-3.63;100.00;98341.89;438458;1260;140176;-59
2024/02/08 05:17:54;;;;;;;11.10;6.10;;;;;;;-3.64;100.00;98342.09;438796;1257;126497;-54
2024/02/08 05:28:03;;;;;;;15.20;8.10;;;;;;;-3.66;100.00;98338.19;448170;1257;140330;-64
2024/02/08 05:38:10;;;;;;;19.50;11.40;;;;;;;-3.59;100.00;98342.31;443619;1256;139661;-54
2024/02/08 05:48:17;;;;;;;23.60;13.90;;;;;;;-3.49;100.00;98338.95;437345;1259;139767;-52
2024/02/08 05:58:27;;;;;;;24.80;11.70;;;;;;;-3.38;100.00;98339.34;439391;1257;139890;-56
2024/02/08 06:08:39;;;;;;;27.50;14.10;;;;;;;-3.32;100.00;98347.55;437658;1260;140991;-54
2024/02/08 06:18:48;;;;;;;21.00;11.70;;;;;;;-3.26;100.00;98367.94;447061;1257;140262;-64
2024/02/08 06:29:05;;;;;;;16.60;10.60;;;;;;;-3.21;100.00;98364.73;439406;1259;139780;-65
2024/02/08 06:39:23;;;;;;;18.20;12.50;;;;;;;-3.11;100.00;98367.17;437463;1257;312518;-54
2024/02/08 07:41:33;;;;;;;34.00;23.30;;;;;;;-1.55;100.00;98379.40;436129;1260;140635;-63
2024/02/08 07:51:50;;;;;;;33.30;21.50;;;;;;;-0.81;100.00;98378.50;440230;1259;139791;-62
2024/02/08 08:01:57;;;;;;;30.60;21.50;;;;;;;-0.20;100.00;98379.13;436659;1258;140201;-63
2024/02/08 08:12:06;;;;;;;33.90;22.40;;;;;;;0.16;100.00;98370.66;436394;1258;140048;-68
2024/02/08 08:33:07;;;;;;;26.40;18.70;;;;;;;0.52;100.00;98353.48;440536;1257;139047;-76
2024/02/08 08:43:19;;;;;;;20.80;15.60;;;;;;;0.72;100.00;98334.39;439285;1259;139488;-69
2024/02/08 08:53:28;;;;;;;26.50;15.40;;;;;;;0.89;100.00;98326.76;436013;1257;139560;-70
2024/02/08 09:03:34;;;;;;;24.00;14.20;;;;;;;1.00;100.00;98335.09;435853;1260;139869;-64
2024/02/08 09:13:42;;;;;;;22.80;13.80;;;;;;;1.20;100.00;98334.35;437541;1260;140560;-59
2024/02/08 09:23:48;;;;;;;22.70;15.80;;;;;;;1.45;100.00;98335.30;447887;1258;141134;-59
2024/02/08 09:34:00;;;;;;;20.70;13.10;;;;;;;1.46;100.00;98333.15;437077;1257;140847;-69
2024/02/08 09:44:11;;;;;;;13.80;10.30;;;;;;;1.47;100.00;98331.71;438909;1260;139900;-67
2024/02/08 09:54:26;;;;;;;20.20;8.20;;;;;;;1.63;100.00;98337.52;439005;1257;140085;-60
2024/02/08 10:04:33;;;;;;;13.30;7.70;;;;;;;1.61;100.00;98320.52;437510;1258;141677;-65
2024/02/08 10:14:42;;;;;;;7.60;5.50;;;;;;;1.38;100.00;98310.76;440792;1257;139970;-65
2024/02/08 10:35:20;;;;;;;11.00;6.60;;;;;;;1.17;100.00;98307.93;439326;1262;139745;-69
2024/02/08 10:45:32;;;;;;;13.80;7.20;;;;;;;1.24;100.00;98309.50;437968;1259;140276;-64
2024/02/08 10:55:39;;;;;;;16.30;7.80;;;;;;;1.29;100.00;98298.73;439191;1257;140284;-63
2024/02/08 11:06:00;;;;;;;;;;;;;;;1.39;100.00;98281.77;438900;1257;139579;-63
2024/02/08 11:16:20;;;;;;;14.10;7.40;;;;;;;1.47;100.00;98285.33;438002;1261;126187;-62
2024/02/08 11:26:28;;;;;;;8.80;5.20;;;;;;;1.63;100.00;98304.23;444219;1257;139780;-69
2024/02/08 11:36:36;;;;;;;12.00;5.80;;;;;;;1.78;100.00;98283.51;443335;1257;139858;-65
2024/02/08 11:46:45;;;;;;;15.50;7.20;;;;;;;1.81;100.00;98256.29;442320;1257;140056;-64
2024/02/08 11:56:56;;;;;;;10.20;5.20;;;;;;;1.68;99.68;98226.88;441660;1259;139578;-68
2024/02/08 12:07:07;;;;;;;11.80;6.10;;;;;;;1.58;99.27;98236.16;438393;1257;140388;-59
2024/02/08 12:17:22;;;;;;;15.30;8.10;;;;;;;1.49;99.25;98228.64;438340;1257;141708;-69
2024/02/08 12:27:30;;;;;;;11.70;6.40;;;;;;;1.52;99.64;98223.02;437141;1261;139231;-62
2024/02/08 12:37:36;;;;;;;10.30;6.30;;;;;;;1.46;99.12;98220.35;449975;1259;139126;-64
2024/02/08 12:47:49;;;;;;;10.60;5.40;;;;;;;1.32;99.31;98205.83;438514;1259;140543;-65
2024/02/08 12:58:02;;;;;;;11.90;5.20;;;;;;;1.27;99.39;98197.64;440018;1257;139182;-63
2024/02/08 13:08:18;;;;;;;9.70;4.60;;;;;;;1.18;99.28;98176.86;447967;1257;139211;-63
2024/02/08 13:18:24;;;;;;;11.20;5.10;;;;;;;1.18;99.64;98163.59;442857;1257;140230;-59
2024/02/08 13:28:32;;;;;;;11.70;5.60;;;;;;;1.30;99.37;98161.33;443282;1259;139206;-59
2024/02/08 13:38:39;;;;;;;8.20;4.70;;;;;;;1.56;99.80;98159.70;444114;1259;140206;-65
2024/02/08 13:48:45;;;;;;;13.00;6.30;;;;;;;1.66;99.14;98146.40;436179;1260;139658;-61
2024/02/08 13:58:54;;;;;;;10.80;5.50;;;;;;;1.68;98.84;98128.21;437068;1259;139268;-60
2024/02/08 14:09:19;;;;;;;13.60;6.20;;;;;;;1.59;98.15;98114.49;438127;1260;139130;-60
2024/02/08 14:19:36;;;;;;;12.50;5.30;;;;;;;1.52;97.89;98115.40;439817;1257;139219;-63
2024/02/08 14:29:43;;;;;;;5.80;4.00;;;;;;;1.56;97.85;98109.66;436749;1260;139386;-61
2024/02/08 14:39:49;;;;;;;9.60;5.10;;;;;;;1.55;97.18;98110.40;439247;1257;139320;-59
2024/02/08 14:49:59;;;;;;;11.50;8.00;;;;;;;1.43;96.91;98106.84;445923;1259;138775;-59
2024/02/08 15:10:43;;;;;;;13.80;7.90;;;;;;;1.29;97.33;98078.77;443109;1257;140042;-57
2024/02/08 15:20:55;;;;;;;11.80;6.40;;;;;;;1.14;97.35;98081.90;436301;1261;139663;-60
2024/02/08 15:31:15;;;;;;;10.50;5.90;;;;;;;0.95;97.47;98077.83;439447;1260;139913;-74
2024/02/08 15:41:41;;;;;;;12.50;7.70;;;;;;;0.71;97.50;98065.38;450013;1258;139342;-68
2024/02/08 15:51:49;;;;;;;12.30;6.70;;;;;;;0.51;97.72;98055.63;437872;1256;139711;-61
2024/02/08 16:01:57;;;;;;;12.40;7.20;;;;;;;0.35;97.86;98046.25;449495;1257;139648;-61
2024/02/08 16:12:22;;;;;;;20.60;12.00;;;;;;;0.25;98.26;98052.20;449965;1257;139129;-78
2024/02/08 16:22:30;;;;;;;19.80;10.00;;;;;;;0.20;98.83;98054.65;438189;1261;139529;-73
2024/02/08 16:32:41;;;;;;;16.00;10.40;;;;;;;0.17;99.49;98058.10;449967;1257;139405;-59
2024/02/08 16:42:52;;;;;;;11.60;7.00;;;;;;;0.27;99.97;98060.05;444997;1261;139991;-60
2024/02/08 16:52:59;;;;;;;11.90;6.20;;;;;;;0.39;100.00;98057.75;437327;1262;141183;-70
2024/02/08 17:03:36;;;;;;;18.90;12.00;;;;;;;0.44;99.96;98059.27;436878;1260;139776;-68
2024/02/08 17:13:40;;;;;;;16.40;10.60;;;;;;;0.38;99.79;98064.31;435869;1263;139132;-65
2024/02/08 17:23:59;;;;;;;14.40;9.90;;;;;;;0.34;99.83;98048.36;435734;1262;139366;-59
2024/02/08 17:34:11;;;;;;;14.80;9.40;;;;;;;0.27;99.90;98039.39;438404;1262;139905;-58
2024/02/08 17:44:17;;;;;;;17.10;7.10;;;;;;;0.22;99.99;98033.91;438281;1261;139240;-65
2024/02/08 17:54:24;;;;;;;12.90;8.90;;;;;;;0.18;100.00;98038.23;439329;1261;140075;-65
2024/02/08 18:04:35;;;;;;;15.80;10.30;;;;;;;0.16;100.00;98035.44;435370;1262;139560;-63
2024/02/08 18:14:43;;;;;;;15.50;9.10;;;;;;;0.11;100.00;98025.64;435078;1262;139687;-65
2024/02/08 18:24:52;;;;;;;19.90;10.70;;;;;;;0.10;100.00;98001.61;435356;1261;139618;-65
2024/02/08 18:35:01;;;;;;;17.00;9.30;;;;;;;0.06;100.00;97993.68;445101;1261;139928;-64
2024/02/08 18:45:15;;;;;;;13.30;9.40;;;;;;;0.07;100.00;97991.27;436244;1262;139899;-55
2024/02/08 18:55:44;;;;;;;17.60;10.30;;;;;;;0.11;100.00;97984.17;439383;1260;139656;-55
2024/02/08 19:05:51;;;;;;;14.90;9.40;;;;;;;0.13;100.00;97976.17;435398;1257;139494;-59
2024/02/08 19:16:01;;;;;;;16.90;10.10;;;;;;;0.13;100.00;97964.30;434676;1261;139760;-58
2024/02/08 19:26:16;;;;;;;16.40;10.50;;;;;;;0.11;100.00;97948.91;438309;1258;140018;-55
2024/02/08 19:36:25;;;;;;;12.70;8.50;;;;;;;0.08;100.00;97936.30;435228;1257;140507;-59
2024/02/08 19:46:31;;;;;;;9.30;7.10;;;;;;;0.05;100.00;97924.77;447032;1257;140010;-58
2024/02/08 19:56:43;;;;;;;13.70;9.50;;;;;;;-0.03;99.99;97918.75;438439;1260;139432;-58
2024/02/08 20:06:54;;;;;;;15.30;10.30;;;;;;;-0.11;100.00;97922.09;435287;1260;139537;-58
2024/02/08 20:17:09;;;;;;;16.40;11.00;;;;;;;-0.24;100.00;97922.69;441450;1257;139541;-67
2024/02/08 20:27:18;;;;;;;13.80;10.80;;;;;;;-0.37;100.00;97919.30;439077;1258;139272;-66
2024/02/08 20:37:27;;;;;;;17.80;12.60;;;;;;;-0.49;100.00;97911.08;443532;1260;139704;-56
2024/02/08 20:47:36;;;;;;;20.40;14.50;;;;;;;-0.59;100.00;97901.73;437409;1258;139620;-56
2024/02/08 20:57:43;;;;;;;18.30;13.40;;;;;;;-0.80;100.00;97896.85;438991;1260;139670;-64
2024/02/08 21:07:50;;;;;;;20.50;16.00;;;;;;;-0.98;100.00;97888.68;446073;1256;140198;-65
2024/02/08 21:18:02;;;;;;;23.70;14.80;;;;;;;-1.04;100.00;97892.73;441249;1257;140991;-67
2024/02/08 21:28:10;;;;;;;19.60;15.60;;;;;;;-1.06;100.00;97890.09;449626;1256;140247;-67
2024/02/08 21:38:17;;;;;;;23.60;16.70;;;;;;;-1.05;100.00;97893.80;441391;1257;139837;-66
2024/02/08 21:48:23;;;;;;;;;;;;;;;-1.03;100.00;97899.21;436146;1257;140066;-58
2024/02/08 21:58:30;;;;;;;21.80;17.10;;;;;;;-0.98;100.00;97903.14;444670;1257;129276;-66
2024/02/08 22:08:37;;;;;;;25.40;18.60;;;;;;;-0.93;100.00;97917.66;435855;1257;139750;-58
2024/02/08 22:18:45;;;;;;;25.40;18.40;;;;;;;-0.90;100.00;97916.99;435686;1258;140299;-58
2024/02/08 22:28:52;;;;;;;26.10;18.20;;;;;;;-0.87;100.00;97912.24;436250;1259;141843;-59
2024/02/08 22:39:00;;;;;;;27.80;16.60;;;;;;;-0.83;100.00;97909.70;438942;1257;139870;-58
2024/02/08 22:49:06;;;;;;;22.70;16.00;;;;;;;-0.78;100.00;97918.03;441740;1258;140424;-56
2024/02/08 22:59:19;;;;;;;23.10;15.80;;;;;;;-0.76;100.00;97907.98;435395;1258;140423;-55
2024/02/08 23:09:27;;;;;;;17.80;15.10;;;;;;;-0.81;100.00;97900.31;435910;1260;140320;-56
2024/02/08 23:19:34;;;;;;;22.00;16.90;;;;;;;-0.79;100.00;97891.14;441255;1257;140465;-55
2024/02/08 23:29:41;;;;;;;19.80;14.30;;;;;;;-0.79;100.00;97865.20;439215;1257;140193;-59
2024/02/08 23:39:48;;;;;;;23.00;14.80;;;;;;;-0.82;100.00;97852.60;435081;1261;139879;-58
2024/02/08 23:49:54;;;;;;;20.10;15.00;;;;;;;-0.84;100.00;97852.16;435311;1260;139759;-55
